Wyoming, Ohio
Current Conditions -  °F | °C
As of 11:53 AM on Tuesday 21 Oct 2014 (Local Time) from KHAO Reporting Station
Broken Clouds Broken Clouds  
Wind Chill: 12°   Ceiling: 3400
Heat Index: 12°   Visibility: 10mi
Dew Point:   Wind: 10mph
Humidity: 66%   Direction: 320°NW
Pressure: 30.05"   Gusts: NA
Location:  39.246°N, 84.538°W
Report Text: KHAO 211553Z AUTO 32009KT 10SM BKN034 BKN050 BKN055 12/06 A3005 RMK AO2 SLP176 T01170056
Loading
Personal Weather Stations






























Interactive Weather Map
Tropical Storm Tracking
New forecast layout! Learn more

10-Day Weather Forecast

Advertisements
Track Severe Weather on mobile